createdAt,value
2023-02-21T00:02:32.628Z,27.38
2023-02-21T00:05:17.672Z,27.39
2023-02-21T00:08:02.602Z,27.46
2023-02-21T00:10:49.386Z,27.46
2023-02-21T00:13:34.274Z,27.38
2023-02-21T00:16:19.211Z,27.29
2023-02-21T00:19:04.573Z,27.50
2023-02-21T00:21:49.384Z,27.38
2023-02-21T00:24:34.823Z,27.33
2023-02-21T00:27:21.338Z,27.34
2023-02-21T00:30:06.806Z,27.42
2023-02-21T00:32:51.797Z,27.07
2023-02-21T00:35:36.953Z,27.38
2023-02-21T00:38:21.831Z,27.12
2023-02-21T00:41:06.653Z,27.35
2023-02-21T00:43:53.501Z,27.33
2023-02-21T00:46:38.412Z,27.34
2023-02-21T00:49:23.427Z,27.19
2023-02-21T00:52:08.850Z,26.98
2023-02-21T00:54:53.715Z,27.17
2023-02-21T00:57:38.667Z,27.22
2023-02-21T01:00:25.913Z,27.09
2023-02-21T01:03:10.831Z,27.21
2023-02-21T01:05:55.773Z,27.34
2023-02-21T01:08:41.143Z,27.28
2023-02-21T01:11:26.093Z,27.31
2023-02-21T01:14:10.973Z,27.32
2023-02-21T01:16:59.391Z,27.40
2023-02-21T01:19:52.549Z,27.06
2023-02-21T01:22:37.262Z,27.05
2023-02-21T01:25:22.674Z,27.30
2023-02-21T01:28:07.694Z,27.12
2023-02-21T01:30:52.621Z,27.17
2023-02-21T01:33:39.038Z,27.01
2023-02-21T01:36:24.395Z,27.15
2023-02-21T01:39:09.185Z,27.01
2023-02-21T01:41:54.193Z,27.20
2023-02-21T01:44:50.212Z,26.98
2023-02-21T01:47:35.624Z,27.13
2023-02-21T01:50:23.896Z,27.05
2023-02-21T01:53:08.783Z,27.25
2023-02-21T01:55:54.232Z,27.11
2023-02-21T01:58:40.008Z,26.99
2023-02-21T02:01:25.016Z,27.11
2023-02-21T02:04:10.520Z,27.30
2023-02-21T02:06:56.993Z,27.17
2023-02-21T02:09:42.287Z,26.97
2023-02-21T02:12:26.204Z,27.19
2023-02-21T02:15:01.734Z,27.06
2023-02-21T02:17:34.053Z,27.22
2023-02-21T02:20:11.355Z,27.16
2023-02-21T02:22:54.208Z,27.20
2023-02-21T02:25:26.418Z,27.22
2023-02-21T02:28:02.885Z,26.99
2023-02-21T02:30:44.732Z,26.92
2023-02-21T02:33:34.839Z,27.16
2023-02-21T02:36:05.249Z,27.25
2023-02-21T02:38:34.713Z,27.12
2023-02-21T02:41:05.052Z,26.90
2023-02-21T02:43:33.179Z,26.89
2023-02-21T02:46:02.213Z,26.88
2023-02-21T02:48:31.768Z,27.19
2023-02-21T02:50:59.481Z,27.03
2023-02-21T02:53:29.380Z,26.98
2023-02-21T02:55:57.943Z,26.92
2023-02-21T02:58:25.979Z,27.04
2023-02-21T03:00:55.815Z,26.95
2023-02-21T03:03:31.593Z,27.00
2023-02-21T03:06:02.307Z,27.07
2023-02-21T03:08:34.945Z,27.08
2023-02-21T03:11:03.912Z,26.96
2023-02-21T03:13:34.533Z,27.01
2023-02-21T03:16:03.601Z,27.10
2023-02-21T03:18:32.057Z,27.10
2023-02-21T03:21:00.505Z,27.02
2023-02-21T03:23:29.682Z,27.07
2023-02-21T03:25:59.179Z,27.07
2023-02-21T03:28:26.787Z,26.88
2023-02-21T03:30:54.637Z,26.89
2023-02-21T03:33:22.464Z,26.94
2023-02-21T03:35:50.120Z,26.70
2023-02-21T03:38:17.764Z,27.04
2023-02-21T03:40:45.573Z,27.15
2023-02-21T03:43:14.648Z,27.20
2023-02-21T03:45:42.251Z,27.12
2023-02-21T03:48:09.972Z,27.06
2023-02-21T03:50:38.196Z,27.02
2023-02-21T03:53:09.628Z,27.05
2023-02-21T03:55:37.414Z,27.00
2023-02-21T03:58:05.145Z,26.95
2023-02-21T04:00:34.206Z,26.90
2023-02-21T04:03:01.956Z,26.93
2023-02-21T04:05:29.714Z,26.93
2023-02-21T04:07:57.424Z,26.87
2023-02-21T04:10:25.181Z,26.97
2023-02-21T04:12:52.852Z,26.94
2023-02-21T04:15:20.537Z,27.09
2023-02-21T04:17:49.564Z,26.82
2023-02-21T04:20:17.306Z,26.72
2023-02-21T04:22:51.808Z,26.89
2023-02-21T04:25:25.668Z,26.78
2023-02-21T04:27:53.859Z,26.81
2023-02-21T04:30:21.494Z,27.19
2023-02-21T04:32:50.591Z,27.09
2023-02-21T04:35:18.320Z,26.95
2023-02-21T04:37:46.352Z,27.01
2023-02-21T04:40:14.030Z,26.82
2023-02-21T04:42:41.721Z,26.92
2023-02-21T04:45:09.580Z,26.83
2023-02-21T04:47:37.273Z,26.82
2023-02-21T04:50:06.510Z,26.91
2023-02-21T04:52:34.204Z,26.83
2023-02-21T04:55:01.928Z,27.04
2023-02-21T04:57:29.596Z,26.99
2023-02-21T04:59:57.782Z,26.77
2023-02-21T05:02:25.562Z,26.91
2023-02-21T05:04:53.279Z,26.80
2023-02-21T05:07:22.325Z,26.83
2023-02-21T05:09:49.945Z,27.02
2023-02-21T05:12:17.669Z,26.86
2023-02-21T05:14:45.341Z,26.97
2023-02-21T05:17:13.069Z,27.00
2023-02-21T05:19:40.825Z,26.81
2023-02-21T05:22:08.610Z,26.82
2023-02-21T05:24:42.574Z,26.79
2023-02-21T05:27:11.398Z,26.92
2023-02-21T05:29:39.073Z,26.74
2023-02-21T05:32:06.836Z,26.99
2023-02-21T05:34:34.650Z,26.89
2023-02-21T05:37:02.370Z,26.97
2023-02-21T05:39:30.670Z,27.00
2023-02-21T05:41:59.718Z,27.08
2023-02-21T05:44:27.400Z,26.98
2023-02-21T05:46:55.098Z,26.99
2023-02-21T05:49:22.807Z,27.09
2023-02-21T05:51:50.567Z,27.04
2023-02-21T05:54:18.691Z,26.88
2023-02-21T05:56:46.747Z,27.17
2023-02-21T05:59:15.760Z,26.94
2023-02-21T06:01:43.536Z,27.10
2023-02-21T06:04:11.189Z,26.83
2023-02-21T06:06:38.924Z,27.26
2023-02-21T06:09:06.656Z,27.02
2023-02-21T06:11:34.715Z,26.74
2023-02-21T06:14:03.501Z,26.82
2023-02-21T06:16:35.220Z,27.07
2023-02-21T06:19:02.906Z,26.99
2023-02-21T06:21:30.597Z,26.91
2023-02-21T06:23:58.271Z,26.94
2023-02-21T06:26:25.955Z,26.73
2023-02-21T06:28:53.691Z,26.69
2023-02-21T06:31:21.450Z,26.85
2023-02-21T06:33:50.689Z,26.97
2023-02-21T06:36:18.986Z,26.73
2023-02-21T06:38:47.079Z,27.06
2023-02-21T06:41:16.421Z,27.00
2023-02-21T06:43:44.230Z,27.05
2023-02-21T06:46:11.959Z,27.04
2023-02-21T06:48:39.656Z,26.98
2023-02-21T06:51:11.344Z,27.22
2023-02-21T06:53:38.977Z,26.69
2023-02-21T06:56:07.045Z,27.00
2023-02-21T06:58:34.751Z,26.84
2023-02-21T07:01:02.509Z,26.96
2023-02-21T07:03:30.191Z,26.99
2023-02-21T07:05:57.853Z,26.88
2023-02-21T07:08:27.012Z,26.78
2023-02-21T07:10:54.765Z,26.61
2023-02-21T07:13:22.671Z,26.62
2023-02-21T07:15:50.386Z,26.62
2023-02-21T07:18:18.105Z,26.79
2023-02-21T07:20:46.094Z,26.88
2023-02-21T07:23:13.842Z,26.80
2023-02-21T07:25:42.930Z,26.88
2023-02-21T07:28:10.613Z,26.88
2023-02-21T07:30:38.308Z,26.78
2023-02-21T07:33:05.909Z,26.59
2023-02-21T07:35:33.543Z,26.69
2023-02-21T07:38:01.502Z,26.64
2023-02-21T07:40:29.146Z,26.63
2023-02-21T07:42:58.224Z,26.51
2023-02-21T07:45:25.979Z,26.49
2023-02-21T07:47:53.636Z,26.61
2023-02-21T07:50:23.766Z,26.69
2023-02-21T07:52:51.518Z,26.66
2023-02-21T07:55:19.201Z,26.91
2023-02-21T07:57:47.439Z,26.79
2023-02-21T08:00:16.309Z,26.84
2023-02-21T08:02:50.091Z,26.72
2023-02-21T08:05:17.988Z,26.70
2023-02-21T08:07:46.326Z,26.70
2023-02-21T08:10:14.633Z,26.80
2023-02-21T08:12:43.631Z,26.47
2023-02-21T08:15:11.353Z,26.42
2023-02-21T08:17:39.612Z,26.69
2023-02-21T08:20:09.758Z,26.62
2023-02-21T08:22:37.671Z,26.57
2023-02-21T08:25:05.797Z,26.65
2023-02-21T08:27:33.886Z,26.48
2023-02-21T08:30:01.561Z,26.41
2023-02-21T08:32:29.699Z,26.60
2023-02-21T08:34:57.372Z,26.71
2023-02-21T08:37:33.389Z,26.39
2023-02-21T08:40:01.068Z,26.63
2023-02-21T08:42:28.769Z,26.55
2023-02-21T08:44:57.584Z,26.24
2023-02-21T08:47:25.228Z,26.50
2023-02-21T08:49:53.196Z,26.50
2023-02-21T08:52:21.862Z,26.56
2023-02-21T08:54:50.953Z,26.49
2023-02-21T08:57:19.264Z,26.35
2023-02-21T08:59:46.977Z,26.48
2023-02-21T09:02:17.989Z,26.39
2023-02-21T09:04:46.347Z,26.26
2023-02-21T09:07:14.246Z,26.62
2023-02-21T09:09:41.949Z,26.53
2023-02-21T09:12:11.083Z,26.31
2023-02-21T09:14:38.750Z,26.50
2023-02-21T09:17:07.246Z,26.38
2023-02-21T09:19:34.929Z,26.54
2023-02-21T09:22:04.981Z,26.56
2023-02-21T09:24:32.625Z,26.55
2023-02-21T09:27:03.151Z,26.31
2023-02-21T09:29:45.091Z,26.64
2023-02-21T09:32:14.065Z,26.55
2023-02-21T09:34:41.964Z,26.59
2023-02-21T09:37:09.716Z,26.58
2023-02-21T09:39:38.110Z,26.59
2023-02-21T09:42:06.302Z,26.57
2023-02-21T09:44:35.274Z,26.55
2023-02-21T09:47:03.570Z,26.48
2023-02-21T09:49:32.204Z,26.45
2023-02-21T09:52:00.406Z,26.51
2023-02-21T09:54:30.754Z,26.55
2023-02-21T09:56:58.426Z,26.43
2023-02-21T09:59:26.569Z,26.43
2023-02-21T10:02:01.236Z,26.59
2023-02-21T10:04:31.496Z,26.53
2023-02-21T10:07:01.213Z,26.47
2023-02-21T10:09:31.705Z,26.45
2023-02-21T10:12:05.729Z,26.53
2023-02-21T10:14:35.683Z,26.54
2023-02-21T10:17:06.685Z,26.41
2023-02-21T10:19:35.522Z,26.82
2023-02-21T10:22:04.382Z,26.44
2023-02-21T10:24:32.140Z,26.59
2023-02-21T10:27:00.902Z,26.42
2023-02-21T10:29:31.052Z,26.60
2023-02-21T10:32:00.876Z,26.52
2023-02-21T10:34:30.866Z,26.71
2023-02-21T10:36:59.122Z,26.52
2023-02-21T10:39:28.749Z,26.50
2023-02-21T10:41:56.791Z,26.80
2023-02-21T10:44:27.105Z,26.45
2023-02-21T10:46:57.411Z,26.41
2023-02-21T10:49:29.187Z,26.52
2023-02-21T10:52:11.065Z,26.53
2023-02-21T10:54:38.764Z,26.57
2023-02-21T10:57:18.692Z,26.44
2023-02-21T10:59:47.305Z,26.67
2023-02-21T11:02:27.839Z,26.56
2023-02-21T11:04:55.502Z,26.86
2023-02-21T11:07:24.683Z,26.77
2023-02-21T11:09:52.396Z,26.69
2023-02-21T11:12:21.251Z,26.59
2023-02-21T11:15:05.370Z,26.76
2023-02-21T11:17:33.362Z,26.78
2023-02-21T11:20:07.765Z,26.67
2023-02-21T11:22:42.830Z,26.82
2023-02-21T11:25:18.355Z,26.84
2023-02-21T11:27:46.546Z,26.59
2023-02-21T11:30:15.273Z,26.74
2023-02-21T11:32:43.261Z,26.57
2023-02-21T11:35:22.266Z,26.73
2023-02-21T11:37:53.361Z,26.53
2023-02-21T11:40:35.694Z,26.59
2023-02-21T11:43:11.353Z,26.77
2023-02-21T11:45:40.818Z,26.66
2023-02-21T11:48:11.652Z,26.73
2023-02-21T11:50:41.056Z,26.87
2023-02-21T11:53:12.903Z,26.69
2023-02-21T11:55:40.604Z,26.76
2023-02-21T11:58:11.102Z,26.67
2023-02-21T12:00:42.932Z,26.80
2023-02-21T12:03:24.366Z,26.75
2023-02-21T12:05:54.793Z,26.67
2023-02-21T12:08:31.150Z,26.86
2023-02-21T12:11:01.061Z,26.76
2023-02-21T12:13:31.348Z,26.67
2023-02-21T12:16:01.783Z,26.66
2023-02-21T12:18:34.007Z,26.75
2023-02-21T12:21:12.107Z,26.95
2023-02-21T12:23:43.964Z,26.97
2023-02-21T12:26:34.479Z,26.92
2023-02-21T12:29:05.135Z,26.58
2023-02-21T12:31:36.116Z,26.65
2023-02-21T12:34:07.769Z,26.92
2023-02-21T12:36:45.545Z,26.82
2023-02-21T12:39:17.982Z,26.61
2023-02-21T12:41:49.562Z,26.57
2023-02-21T12:44:18.832Z,26.90
2023-02-21T12:46:48.119Z,26.78
2023-02-21T12:49:16.952Z,26.81
2023-02-21T12:51:46.387Z,26.77
2023-02-21T12:54:15.378Z,26.57
2023-02-21T12:56:46.382Z,26.53
2023-02-21T12:59:15.551Z,26.83
2023-02-21T13:01:44.581Z,26.47
2023-02-21T13:04:18.872Z,26.63
2023-02-21T13:06:48.088Z,26.50
2023-02-21T13:09:18.610Z,26.64
2023-02-21T13:11:50.556Z,26.54
2023-02-21T13:14:18.581Z,26.53
2023-02-21T13:16:46.311Z,26.74
2023-02-21T13:19:14.247Z,26.51
2023-02-21T13:21:50.762Z,26.74
2023-02-21T13:24:32.375Z,26.53
2023-02-21T13:27:06.286Z,26.55
2023-02-21T13:29:35.297Z,26.58
2023-02-21T13:32:04.423Z,26.74
2023-02-21T13:34:33.276Z,26.77
2023-02-21T13:37:01.758Z,26.72
2023-02-21T13:39:32.336Z,26.76
2023-02-21T13:42:06.719Z,26.72
2023-02-21T13:44:35.215Z,26.98
2023-02-21T13:47:08.690Z,26.96
2023-02-21T13:49:42.698Z,26.96
2023-02-21T13:52:27.260Z,27.07
2023-02-21T13:55:11.193Z,26.73
2023-02-21T13:57:58.275Z,26.77
2023-02-21T14:00:50.022Z,26.94
2023-02-21T14:03:35.643Z,26.86
2023-02-21T14:06:22.157Z,26.86
2023-02-21T14:08:50.417Z,26.72
2023-02-21T14:11:20.081Z,26.83
2023-02-21T14:13:55.044Z,26.75
2023-02-21T14:16:24.529Z,26.80
2023-02-21T14:18:56.327Z,26.86
2023-02-21T14:21:24.396Z,26.55
2023-02-21T14:23:53.271Z,26.56
2023-02-21T14:26:52.769Z,26.85
2023-02-21T14:29:40.945Z,26.75
2023-02-21T14:32:25.973Z,27.03
2023-02-21T14:34:56.172Z,26.81
2023-02-21T14:37:25.139Z,26.77
2023-02-21T14:39:53.989Z,27.07
2023-02-21T14:42:40.450Z,26.73
2023-02-21T14:45:23.950Z,26.68
2023-02-21T14:48:06.588Z,26.76
2023-02-21T14:50:41.498Z,26.93
2023-02-21T14:53:28.438Z,26.96
2023-02-21T14:56:12.081Z,26.67
2023-02-21T14:58:44.012Z,26.75
2023-02-21T15:01:14.891Z,26.93
2023-02-21T15:03:43.478Z,26.75
2023-02-21T15:06:15.418Z,26.75
2023-02-21T15:08:43.904Z,26.64
2023-02-21T15:11:18.535Z,26.71
2023-02-21T15:13:46.185Z,26.66
2023-02-21T15:16:14.535Z,26.57
2023-02-21T15:18:43.252Z,26.55
2023-02-21T15:21:16.583Z,26.59
2023-02-21T15:23:46.447Z,26.87
2023-02-21T15:26:18.321Z,26.76
2023-02-21T15:28:47.314Z,26.61
2023-02-21T15:31:15.394Z,26.63
2023-02-21T15:33:43.604Z,26.58
2023-02-21T15:36:17.717Z,26.48
2023-02-21T15:38:46.245Z,26.60
2023-02-21T15:41:17.739Z,26.57
2023-02-21T15:43:55.666Z,26.67
2023-02-21T15:46:24.692Z,26.55
2023-02-21T15:48:52.573Z,26.98
2023-02-21T15:51:22.729Z,26.70
2023-02-21T15:54:10.093Z,26.63
2023-02-21T15:56:37.766Z,26.79
2023-02-21T15:59:13.256Z,26.70
2023-02-21T16:01:41.063Z,26.74
2023-02-21T16:04:16.549Z,26.81
2023-02-21T16:06:49.560Z,26.70
2023-02-21T16:09:25.193Z,26.82
2023-02-21T16:11:53.559Z,26.92
2023-02-21T16:14:22.405Z,27.08
2023-02-21T16:16:54.569Z,27.07
2023-02-21T16:19:23.186Z,27.09
2023-02-21T16:21:52.974Z,27.04
2023-02-21T16:24:39.511Z,27.19
2023-02-21T16:27:08.559Z,26.88
2023-02-21T16:29:36.289Z,27.00
2023-02-21T16:32:04.424Z,27.23
2023-02-21T16:34:33.395Z,27.20
2023-02-21T16:37:06.140Z,27.24
2023-02-21T16:39:34.557Z,26.99
2023-02-21T16:42:02.286Z,27.11
2023-02-21T16:44:31.644Z,27.17
2023-02-21T16:46:59.333Z,27.26
2023-02-21T16:49:31.054Z,27.08
2023-02-21T16:51:59.501Z,27.14
2023-02-21T16:54:28.528Z,27.28
2023-02-21T16:57:12.650Z,27.25
2023-02-21T16:59:40.269Z,27.14
2023-02-21T17:02:12.815Z,27.25
2023-02-21T17:04:40.500Z,27.37
2023-02-21T17:07:11.699Z,27.33
2023-02-21T17:09:41.839Z,27.33
2023-02-21T17:12:10.358Z,27.41
2023-02-21T17:14:38.082Z,27.23
2023-02-21T17:17:05.747Z,27.40
2023-02-21T17:19:34.133Z,27.20
2023-02-21T17:22:01.785Z,27.52
2023-02-21T17:24:31.040Z,27.50
2023-02-21T17:27:01.532Z,27.50
2023-02-21T17:29:30.883Z,27.48
2023-02-21T17:31:58.824Z,27.51
2023-02-21T17:34:28.738Z,27.27
2023-02-21T17:36:56.410Z,27.30
2023-02-21T17:39:24.079Z,27.36
2023-02-21T17:41:52.668Z,27.61
2023-02-21T17:44:21.738Z,27.57
2023-02-21T17:46:50.724Z,27.38
2023-02-21T17:49:22.700Z,27.37
2023-02-21T17:51:51.109Z,27.58
2023-02-21T17:54:19.576Z,27.57
2023-02-21T17:56:48.109Z,27.48
2023-02-21T17:59:15.828Z,27.53
2023-02-21T18:01:44.962Z,27.68
2023-02-21T18:04:17.814Z,27.73
2023-02-21T18:06:45.443Z,27.74
2023-02-21T18:09:15.380Z,27.66
2023-02-21T18:11:43.061Z,27.80
2023-02-21T18:14:10.705Z,27.59
2023-02-21T18:16:39.156Z,27.54
2023-02-21T18:19:08.195Z,27.85
2023-02-21T18:21:37.080Z,27.85
2023-02-21T18:24:05.854Z,27.78
2023-02-21T18:26:33.530Z,27.88
2023-02-21T18:29:03.794Z,27.86
2023-02-21T18:31:31.492Z,27.71
2023-02-21T18:34:00.740Z,27.85
2023-02-21T18:36:29.752Z,27.85
2023-02-21T18:38:57.491Z,27.80
2023-02-21T18:41:26.784Z,27.69
2023-02-21T18:43:57.243Z,27.78
2023-02-21T18:46:26.895Z,27.65
2023-02-21T18:48:54.679Z,27.83
2023-02-21T18:51:24.129Z,27.86
2023-02-21T18:53:53.302Z,27.98
2023-02-21T18:56:21.137Z,28.04
2023-02-21T18:58:50.970Z,27.93
2023-02-21T19:01:19.716Z,27.71
2023-02-21T19:03:48.894Z,28.08
2023-02-21T19:06:22.260Z,28.01
2023-02-21T19:08:51.593Z,28.03
2023-02-21T19:11:20.712Z,27.98
2023-02-21T19:13:54.338Z,28.03
2023-02-21T19:16:22.774Z,27.76
2023-02-21T19:18:52.429Z,27.75
2023-02-21T19:21:20.295Z,27.91
2023-02-21T19:23:48.876Z,27.87
2023-02-21T19:26:16.574Z,27.98
2023-02-21T19:28:46.720Z,28.07
2023-02-21T19:31:15.460Z,28.15
2023-02-21T19:33:45.646Z,28.14
2023-02-21T19:36:13.579Z,28.00
2023-02-21T19:38:42.174Z,28.08
2023-02-21T19:41:09.874Z,28.05
2023-02-21T19:43:38.822Z,28.20
2023-02-21T19:46:07.803Z,28.10
2023-02-21T19:48:36.419Z,28.25
2023-02-21T19:51:05.663Z,28.31
2023-02-21T19:53:35.991Z,28.37
2023-02-21T19:56:03.680Z,28.09
2023-02-21T19:58:31.294Z,28.29
2023-02-21T20:01:00.540Z,27.93
2023-02-21T20:03:29.605Z,28.01
2023-02-21T20:05:58.391Z,28.17
2023-02-21T20:08:26.195Z,28.06
2023-02-21T20:10:54.797Z,28.09
2023-02-21T20:13:22.525Z,28.12
2023-02-21T20:15:51.176Z,27.98
2023-02-21T20:18:18.841Z,28.30
2023-02-21T20:20:51.076Z,28.29
2023-02-21T20:23:18.983Z,28.08
2023-02-21T20:25:47.719Z,28.22
2023-02-21T20:28:15.478Z,28.36
2023-02-21T20:30:43.716Z,28.39
2023-02-21T20:33:12.420Z,28.24
2023-02-21T20:35:40.167Z,28.33
2023-02-21T20:38:16.142Z,28.41
2023-02-21T20:40:43.867Z,28.27
2023-02-21T20:43:13.223Z,28.17
2023-02-21T20:45:40.972Z,28.21
2023-02-21T20:48:11.918Z,28.11
2023-02-21T20:50:41.741Z,28.20
2023-02-21T20:53:17.174Z,28.49
2023-02-21T20:55:45.055Z,28.41
2023-02-21T20:58:34.256Z,28.39
2023-02-21T21:01:02.021Z,28.50
2023-02-21T21:03:33.141Z,28.05
2023-02-21T21:06:00.854Z,28.18
2023-02-21T21:08:29.990Z,28.31
2023-02-21T21:10:58.813Z,28.25
2023-02-21T21:13:26.533Z,28.22
2023-02-21T21:15:55.087Z,28.16
2023-02-21T21:18:22.737Z,28.19
2023-02-21T21:20:53.925Z,28.34
2023-02-21T21:23:21.614Z,28.10
2023-02-21T21:25:51.740Z,28.23
2023-02-21T21:28:38.763Z,28.33
2023-02-21T21:31:08.969Z,28.13
2023-02-21T21:33:37.608Z,28.32
2023-02-21T21:36:05.500Z,28.21
2023-02-21T21:38:35.146Z,28.34
2023-02-21T21:41:13.229Z,28.17
2023-02-21T21:43:42.126Z,28.17
2023-02-21T21:46:09.853Z,28.13
2023-02-21T21:48:39.208Z,28.34
2023-02-21T21:51:14.235Z,28.07
2023-02-21T21:53:42.660Z,28.27
2023-02-21T21:56:12.659Z,28.16
2023-02-21T21:58:58.493Z,28.31
2023-02-21T22:01:28.994Z,28.31
2023-02-21T22:03:56.728Z,28.23
2023-02-21T22:06:31.192Z,28.23
2023-02-21T22:09:00.529Z,28.23
2023-02-21T22:11:31.944Z,28.23
2023-02-21T22:13:59.783Z,28.19
2023-02-21T22:16:28.949Z,28.35
2023-02-21T22:18:56.674Z,28.42
2023-02-21T22:21:24.353Z,28.34
2023-02-21T22:23:53.107Z,28.13
2023-02-21T22:26:21.259Z,28.43
2023-02-21T22:28:52.982Z,28.32
2023-02-21T22:31:20.682Z,28.24
2023-02-21T22:33:49.217Z,28.25
2023-02-21T22:36:18.229Z,28.29
2023-02-21T22:38:48.217Z,28.41
2023-02-21T22:41:18.839Z,28.25
2023-02-21T22:43:49.876Z,28.25
2023-02-21T22:46:19.135Z,28.17
2023-02-21T22:48:47.788Z,28.40
2023-02-21T22:51:17.368Z,28.46
2023-02-21T22:53:50.850Z,28.39
2023-02-21T22:56:23.596Z,28.30
2023-02-21T22:59:13.362Z,28.44
2023-02-21T23:01:42.432Z,28.39
2023-02-21T23:04:16.777Z,28.40
2023-02-21T23:06:44.591Z,28.31
2023-02-21T23:09:16.209Z,28.61
2023-02-21T23:11:44.474Z,28.38
2023-02-21T23:14:14.742Z,28.35
2023-02-21T23:16:44.282Z,28.63
2023-02-21T23:19:12.072Z,28.55
2023-02-21T23:21:44.527Z,28.44
2023-02-21T23:24:14.550Z,28.30
2023-02-21T23:26:44.279Z,28.57
2023-02-21T23:29:12.161Z,28.21
2023-02-21T23:31:40.894Z,28.38
2023-02-21T23:34:11.652Z,28.41
2023-02-21T23:36:39.645Z,28.31
2023-02-21T23:39:09.187Z,28.41
2023-02-21T23:41:38.953Z,28.35
2023-02-21T23:44:07.530Z,28.47
2023-02-21T23:46:35.184Z,28.39
2023-02-21T23:49:03.633Z,28.63
2023-02-21T23:51:33.351Z,28.25
2023-02-21T23:54:01.678Z,28.41
2023-02-21T23:56:29.386Z,28.68
2023-02-21T23:58:57.093Z,28.63
